sensor_id;sensor_type;location;lat;lon;timestamp;P1;durP1;ratioP1;P2;durP2;ratioP2
9801;SDS011;4940;50.900;4.672;2023-02-15T00:01:50;67.87;;;46.13;;
9801;SDS011;4940;50.900;4.672;2023-02-15T00:04:19;61.30;;;50.60;;
9801;SDS011;4940;50.900;4.672;2023-02-15T00:06:48;59.37;;;48.80;;
9801;SDS011;4940;50.900;4.672;2023-02-15T00:09:16;61.53;;;48.43;;
9801;SDS011;4940;50.900;4.672;2023-02-15T00:11:43;58.50;;;48.23;;
9801;SDS011;4940;50.900;4.672;2023-02-15T00:14:16;65.40;;;47.57;;
9801;SDS011;4940;50.900;4.672;2023-02-15T00:16:45;61.50;;;48.23;;
9801;SDS011;4940;50.900;4.672;2023-02-15T00:19:14;54.97;;;45.53;;
9801;SDS011;4940;50.900;4.672;2023-02-15T00:21:42;61.20;;;46.67;;
9801;SDS011;4940;50.900;4.672;2023-02-15T00:24:12;58.70;;;48.83;;
9801;SDS011;4940;50.900;4.672;2023-02-15T00:26:41;61.73;;;50.37;;
9801;SDS011;4940;50.900;4.672;2023-02-15T00:29:09;67.00;;;52.77;;
9801;SDS011;4940;50.900;4.672;2023-02-15T00:31:37;67.10;;;52.10;;
9801;SDS011;4940;50.900;4.672;2023-02-15T00:34:05;66.47;;;50.47;;
9801;SDS011;4940;50.900;4.672;2023-02-15T00:36:34;63.20;;;48.30;;
9801;SDS011;4940;50.900;4.672;2023-02-15T00:39:02;57.70;;;46.60;;
9801;SDS011;4940;50.900;4.672;2023-02-15T00:41:31;55.10;;;45.30;;
9801;SDS011;4940;50.900;4.672;2023-02-15T00:43:58;61.93;;;43.00;;
9801;SDS011;4940;50.900;4.672;2023-02-15T00:46:26;60.20;;;45.20;;
9801;SDS011;4940;50.900;4.672;2023-02-15T00:48:53;59.13;;;41.70;;
9801;SDS011;4940;50.900;4.672;2023-02-15T00:51:21;58.70;;;42.50;;
9801;SDS011;4940;50.900;4.672;2023-02-15T00:53:48;62.08;;;43.95;;
9801;SDS011;4940;50.900;4.672;2023-02-15T00:56:16;61.00;;;45.37;;
9801;SDS011;4940;50.900;4.672;2023-02-15T00:58:44;56.73;;;44.23;;
9801;SDS011;4940;50.900;4.672;2023-02-15T01:01:12;61.60;;;48.83;;
9801;SDS011;4940;50.900;4.672;2023-02-15T01:03:41;60.70;;;48.73;;
9801;SDS011;4940;50.900;4.672;2023-02-15T01:06:08;58.37;;;51.23;;
9801;SDS011;4940;50.900;4.672;2023-02-15T01:08:36;64.13;;;49.97;;
9801;SDS011;4940;50.900;4.672;2023-02-15T01:11:04;59.07;;;46.20;;
9801;SDS011;4940;50.900;4.672;2023-02-15T01:13:32;54.57;;;43.23;;
9801;SDS011;4940;50.900;4.672;2023-02-15T01:16:01;64.17;;;47.67;;
9801;SDS011;4940;50.900;4.672;2023-02-15T01:18:29;65.13;;;48.03;;
9801;SDS011;4940;50.900;4.672;2023-02-15T01:20:56;62.07;;;49.23;;
9801;SDS011;4940;50.900;4.672;2023-02-15T01:23:24;61.03;;;50.93;;
9801;SDS011;4940;50.900;4.672;2023-02-15T01:25:51;61.33;;;50.70;;
9801;SDS011;4940;50.900;4.672;2023-02-15T01:28:18;65.93;;;54.27;;
9801;SDS011;4940;50.900;4.672;2023-02-15T01:30:46;65.07;;;53.17;;
9801;SDS011;4940;50.900;4.672;2023-02-15T01:33:15;63.63;;;52.43;;
9801;SDS011;4940;50.900;4.672;2023-02-15T01:35:44;59.57;;;52.17;;
9801;SDS011;4940;50.900;4.672;2023-02-15T01:38:12;63.87;;;48.27;;
9801;SDS011;4940;50.900;4.672;2023-02-15T01:40:39;59.00;;;48.80;;
9801;SDS011;4940;50.900;4.672;2023-02-15T01:43:09;60.50;;;45.63;;
9801;SDS011;4940;50.900;4.672;2023-02-15T01:45:37;61.97;;;47.10;;
9801;SDS011;4940;50.900;4.672;2023-02-15T01:48:05;65.90;;;46.97;;
9801;SDS011;4940;50.900;4.672;2023-02-15T01:50:47;59.27;;;46.13;;
9801;SDS011;4940;50.900;4.672;2023-02-15T01:53:20;56.53;;;47.57;;
9801;SDS011;4940;50.900;4.672;2023-02-15T01:55:53;53.23;;;44.60;;
9801;SDS011;4940;50.900;4.672;2023-02-15T01:58:23;56.77;;;41.90;;
9801;SDS011;4940;50.900;4.672;2023-02-15T02:00:51;56.03;;;43.60;;
9801;SDS011;4940;50.900;4.672;2023-02-15T02:03:20;57.20;;;44.53;;
9801;SDS011;4940;50.900;4.672;2023-02-15T02:05:58;59.13;;;45.53;;
9801;SDS011;4940;50.900;4.672;2023-02-15T02:08:25;62.00;;;50.97;;
9801;SDS011;4940;50.900;4.672;2023-02-15T02:10:53;60.47;;;49.90;;
9801;SDS011;4940;50.900;4.672;2023-02-15T02:13:20;59.57;;;49.43;;
9801;SDS011;4940;50.900;4.672;2023-02-15T02:15:51;63.03;;;51.63;;
9801;SDS011;4940;50.900;4.672;2023-02-15T02:18:28;61.23;;;51.53;;
9801;SDS011;4940;50.900;4.672;2023-02-15T02:21:23;60.67;;;52.47;;
9801;SDS011;4940;50.900;4.672;2023-02-15T02:24:02;59.07;;;47.37;;
9801;SDS011;4940;50.900;4.672;2023-02-15T02:27:11;65.13;;;47.27;;
9801;SDS011;4940;50.900;4.672;2023-02-15T02:30:07;53.93;;;43.37;;
9801;SDS011;4940;50.900;4.672;2023-02-15T02:33:03;56.60;;;46.70;;
9801;SDS011;4940;50.900;4.672;2023-02-15T02:35:43;61.07;;;44.73;;
9801;SDS011;4940;50.900;4.672;2023-02-15T02:38:15;58.27;;;44.00;;
9801;SDS011;4940;50.900;4.672;2023-02-15T02:40:49;58.60;;;46.67;;
9801;SDS011;4940;50.900;4.672;2023-02-15T02:43:24;57.50;;;45.30;;
9801;SDS011;4940;50.900;4.672;2023-02-15T02:45:57;58.63;;;47.83;;
9801;SDS011;4940;50.900;4.672;2023-02-15T02:48:29;63.77;;;49.27;;
9801;SDS011;4940;50.900;4.672;2023-02-15T02:50:59;53.17;;;45.53;;
9801;SDS011;4940;50.900;4.672;2023-02-15T02:53:27;61.77;;;46.20;;
9801;SDS011;4940;50.900;4.672;2023-02-15T02:55:58;57.00;;;45.43;;
9801;SDS011;4940;50.900;4.672;2023-02-15T02:58:31;53.57;;;42.07;;
9801;SDS011;4940;50.900;4.672;2023-02-15T03:01:05;53.83;;;43.23;;
9801;SDS011;4940;50.900;4.672;2023-02-15T03:03:37;55.90;;;43.43;;
9801;SDS011;4940;50.900;4.672;2023-02-15T03:06:08;53.57;;;42.70;;
9801;SDS011;4940;50.900;4.672;2023-02-15T03:08:40;58.50;;;44.97;;
9801;SDS011;4940;50.900;4.672;2023-02-15T03:11:11;52.30;;;41.43;;
9801;SDS011;4940;50.900;4.672;2023-02-15T03:13:39;60.80;;;45.63;;
9801;SDS011;4940;50.900;4.672;2023-02-15T03:16:07;53.00;;;44.90;;
9801;SDS011;4940;50.900;4.672;2023-02-15T03:18:57;59.23;;;45.30;;
9801;SDS011;4940;50.900;4.672;2023-02-15T03:21:27;55.27;;;47.47;;
9801;SDS011;4940;50.900;4.672;2023-02-15T03:24:00;59.83;;;47.77;;
9801;SDS011;4940;50.900;4.672;2023-02-15T03:26:30;58.80;;;45.03;;
9801;SDS011;4940;50.900;4.672;2023-02-15T03:29:00;54.67;;;43.87;;
9801;SDS011;4940;50.900;4.672;2023-02-15T03:31:31;52.97;;;43.60;;
9801;SDS011;4940;50.900;4.672;2023-02-15T03:34:04;56.93;;;44.40;;
9801;SDS011;4940;50.900;4.672;2023-02-15T03:36:37;56.40;;;43.17;;
9801;SDS011;4940;50.900;4.672;2023-02-15T03:39:11;58.43;;;46.53;;
9801;SDS011;4940;50.900;4.672;2023-02-15T03:41:46;62.27;;;50.30;;
9801;SDS011;4940;50.900;4.672;2023-02-15T03:44:20;63.40;;;51.97;;
9801;SDS011;4940;50.900;4.672;2023-02-15T03:46:55;60.23;;;52.53;;
9801;SDS011;4940;50.900;4.672;2023-02-15T03:49:28;67.80;;;54.30;;
9801;SDS011;4940;50.900;4.672;2023-02-15T03:52:01;67.10;;;53.57;;
9801;SDS011;4940;50.900;4.672;2023-02-15T03:54:31;55.33;;;45.67;;
9801;SDS011;4940;50.900;4.672;2023-02-15T03:57:13;58.30;;;48.73;;
9801;SDS011;4940;50.900;4.672;2023-02-15T04:00:12;54.30;;;47.20;;
9801;SDS011;4940;50.900;4.672;2023-02-15T04:03:06;60.93;;;51.17;;
9801;SDS011;4940;50.900;4.672;2023-02-15T04:05:39;64.17;;;53.13;;
9801;SDS011;4940;50.900;4.672;2023-02-15T04:08:07;60.83;;;51.27;;
9801;SDS011;4940;50.900;4.672;2023-02-15T04:10:35;70.40;;;53.83;;
9801;SDS011;4940;50.900;4.672;2023-02-15T04:13:21;61.57;;;54.77;;
9801;SDS011;4940;50.900;4.672;2023-02-15T04:15:49;60.63;;;52.97;;
9801;SDS011;4940;50.900;4.672;2023-02-15T04:18:28;62.00;;;55.37;;
9801;SDS011;4940;50.900;4.672;2023-02-15T04:21:14;65.47;;;54.60;;
9801;SDS011;4940;50.900;4.672;2023-02-15T04:23:59;63.77;;;56.80;;
9801;SDS011;4940;50.900;4.672;2023-02-15T04:26:44;66.30;;;58.20;;
9801;SDS011;4940;50.900;4.672;2023-02-15T04:29:13;70.33;;;60.97;;
9801;SDS011;4940;50.900;4.672;2023-02-15T04:31:40;58.53;;;48.23;;
9801;SDS011;4940;50.900;4.672;2023-02-15T04:34:08;60.53;;;52.43;;
9801;SDS011;4940;50.900;4.672;2023-02-15T04:36:38;65.07;;;52.17;;
9801;SDS011;4940;50.900;4.672;2023-02-15T04:39:05;62.17;;;47.10;;
9801;SDS011;4940;50.900;4.672;2023-02-15T04:41:33;63.43;;;53.30;;
9801;SDS011;4940;50.900;4.672;2023-02-15T04:44:00;69.93;;;56.77;;
9801;SDS011;4940;50.900;4.672;2023-02-15T04:46:28;64.63;;;57.70;;
9801;SDS011;4940;50.900;4.672;2023-02-15T04:48:55;64.67;;;52.77;;
9801;SDS011;4940;50.900;4.672;2023-02-15T04:51:23;65.13;;;58.10;;
9801;SDS011;4940;50.900;4.672;2023-02-15T04:53:52;65.67;;;58.07;;
9801;SDS011;4940;50.900;4.672;2023-02-15T04:56:19;69.60;;;56.90;;
9801;SDS011;4940;50.900;4.672;2023-02-15T04:58:47;68.97;;;61.30;;
9801;SDS011;4940;50.900;4.672;2023-02-15T05:01:14;65.37;;;58.13;;
9801;SDS011;4940;50.900;4.672;2023-02-15T05:03:42;63.53;;;52.70;;
9801;SDS011;4940;50.900;4.672;2023-02-15T05:06:09;57.57;;;48.47;;
9801;SDS011;4940;50.900;4.672;2023-02-15T05:08:37;68.93;;;49.83;;
9801;SDS011;4940;50.900;4.672;2023-02-15T05:11:06;67.67;;;51.73;;
9801;SDS011;4940;50.900;4.672;2023-02-15T05:13:33;63.13;;;48.87;;
9801;SDS011;4940;50.900;4.672;2023-02-15T05:16:00;56.97;;;49.13;;
9801;SDS011;4940;50.900;4.672;2023-02-15T05:18:28;62.07;;;51.77;;
9801;SDS011;4940;50.900;4.672;2023-02-15T05:20:55;67.23;;;49.63;;
9801;SDS011;4940;50.900;4.672;2023-02-15T05:23:23;62.40;;;48.50;;
9801;SDS011;4940;50.900;4.672;2023-02-15T05:25:50;70.40;;;52.10;;
9801;SDS011;4940;50.900;4.672;2023-02-15T05:28:37;69.07;;;52.63;;
9801;SDS011;4940;50.900;4.672;2023-02-15T05:31:07;64.97;;;49.90;;
9801;SDS011;4940;50.900;4.672;2023-02-15T05:33:38;57.30;;;47.07;;
9801;SDS011;4940;50.900;4.672;2023-02-15T05:36:05;63.30;;;45.30;;
9801;SDS011;4940;50.900;4.672;2023-02-15T05:38:33;72.63;;;44.63;;
9801;SDS011;4940;50.900;4.672;2023-02-15T05:41:02;63.70;;;43.97;;
9801;SDS011;4940;50.900;4.672;2023-02-15T05:43:29;52.53;;;43.87;;
9801;SDS011;4940;50.900;4.672;2023-02-15T05:45:58;58.70;;;43.60;;
9801;SDS011;4940;50.900;4.672;2023-02-15T05:48:26;65.33;;;43.93;;
9801;SDS011;4940;50.900;4.672;2023-02-15T05:50:57;60.47;;;45.13;;
9801;SDS011;4940;50.900;4.672;2023-02-15T05:53:25;67.87;;;50.50;;
9801;SDS011;4940;50.900;4.672;2023-02-15T05:55:53;62.57;;;49.80;;
9801;SDS011;4940;50.900;4.672;2023-02-15T05:58:24;63.10;;;47.87;;
9801;SDS011;4940;50.900;4.672;2023-02-15T06:00:51;58.50;;;45.47;;
9801;SDS011;4940;50.900;4.672;2023-02-15T06:03:20;60.90;;;43.70;;
9801;SDS011;4940;50.900;4.672;2023-02-15T06:05:47;53.37;;;41.73;;
9801;SDS011;4940;50.900;4.672;2023-02-15T06:08:15;65.67;;;43.13;;
9801;SDS011;4940;50.900;4.672;2023-02-15T06:10:42;63.73;;;40.40;;
9801;SDS011;4940;50.900;4.672;2023-02-15T06:13:09;58.47;;;39.40;;
9801;SDS011;4940;50.900;4.672;2023-02-15T06:15:37;58.63;;;38.20;;
9801;SDS011;4940;50.900;4.672;2023-02-15T06:18:04;58.70;;;39.73;;
9801;SDS011;4940;50.900;4.672;2023-02-15T06:20:33;55.70;;;39.97;;
9801;SDS011;4940;50.900;4.672;2023-02-15T06:23:00;53.37;;;39.97;;
9801;SDS011;4940;50.900;4.672;2023-02-15T06:25:28;54.37;;;40.27;;
9801;SDS011;4940;50.900;4.672;2023-02-15T06:27:55;52.10;;;41.47;;
9801;SDS011;4940;50.900;4.672;2023-02-15T06:30:23;55.40;;;38.13;;
9801;SDS011;4940;50.900;4.672;2023-02-15T06:32:50;51.13;;;40.73;;
9801;SDS011;4940;50.900;4.672;2023-02-15T06:35:18;58.53;;;39.50;;
9801;SDS011;4940;50.900;4.672;2023-02-15T06:37:48;50.70;;;38.07;;
9801;SDS011;4940;50.900;4.672;2023-02-15T06:40:15;51.23;;;39.20;;
9801;SDS011;4940;50.900;4.672;2023-02-15T06:42:43;51.20;;;34.33;;
9801;SDS011;4940;50.900;4.672;2023-02-15T06:45:10;47.00;;;37.00;;
9801;SDS011;4940;50.900;4.672;2023-02-15T06:47:38;48.67;;;35.03;;
9801;SDS011;4940;50.900;4.672;2023-02-15T06:50:06;52.63;;;34.87;;
9801;SDS011;4940;50.900;4.672;2023-02-15T06:52:34;58.77;;;37.47;;
9801;SDS011;4940;50.900;4.672;2023-02-15T06:55:03;56.03;;;37.37;;
9801;SDS011;4940;50.900;4.672;2023-02-15T06:57:31;53.53;;;34.77;;
9801;SDS011;4940;50.900;4.672;2023-02-15T06:59:58;48.10;;;34.17;;
9801;SDS011;4940;50.900;4.672;2023-02-15T07:02:26;52.60;;;36.27;;
9801;SDS011;4940;50.900;4.672;2023-02-15T07:04:54;51.97;;;35.60;;
9801;SDS011;4940;50.900;4.672;2023-02-15T07:07:21;52.97;;;35.87;;
9801;SDS011;4940;50.900;4.672;2023-02-15T07:09:49;48.50;;;38.03;;
9801;SDS011;4940;50.900;4.672;2023-02-15T07:12:17;52.50;;;37.87;;
9801;SDS011;4940;50.900;4.672;2023-02-15T07:15:02;57.67;;;38.10;;
9801;SDS011;4940;50.900;4.672;2023-02-15T07:17:32;50.10;;;39.77;;
9801;SDS011;4940;50.900;4.672;2023-02-15T07:19:59;57.63;;;41.23;;
9801;SDS011;4940;50.900;4.672;2023-02-15T07:22:27;58.83;;;42.57;;
9801;SDS011;4940;50.900;4.672;2023-02-15T07:24:54;50.87;;;40.33;;
9801;SDS011;4940;50.900;4.672;2023-02-15T07:27:23;52.70;;;41.63;;
9801;SDS011;4940;50.900;4.672;2023-02-15T07:29:50;56.43;;;42.10;;
9801;SDS011;4940;50.900;4.672;2023-02-15T07:32:18;56.60;;;42.63;;
9801;SDS011;4940;50.900;4.672;2023-02-15T07:34:45;54.40;;;42.90;;
9801;SDS011;4940;50.900;4.672;2023-02-15T07:37:13;57.80;;;45.67;;
9801;SDS011;4940;50.900;4.672;2023-02-15T07:39:40;61.93;;;45.77;;
9801;SDS011;4940;50.900;4.672;2023-02-15T07:42:08;62.07;;;47.60;;
9801;SDS011;4940;50.900;4.672;2023-02-15T07:44:36;62.87;;;47.70;;
9801;SDS011;4940;50.900;4.672;2023-02-15T07:47:04;71.10;;;49.03;;
9801;SDS011;4940;50.900;4.672;2023-02-15T07:49:31;64.57;;;49.57;;
9801;SDS011;4940;50.900;4.672;2023-02-15T07:52:00;70.53;;;51.33;;
9801;SDS011;4940;50.900;4.672;2023-02-15T07:54:27;62.47;;;47.77;;
9801;SDS011;4940;50.900;4.672;2023-02-15T07:56:55;68.40;;;49.43;;
9801;SDS011;4940;50.900;4.672;2023-02-15T07:59:23;69.10;;;51.73;;
9801;SDS011;4940;50.900;4.672;2023-02-15T08:01:52;66.77;;;51.90;;
9801;SDS011;4940;50.900;4.672;2023-02-15T08:04:21;68.97;;;50.57;;
9801;SDS011;4940;50.900;4.672;2023-02-15T08:06:51;66.63;;;49.97;;
9801;SDS011;4940;50.900;4.672;2023-02-15T08:09:19;73.17;;;51.77;;
9801;SDS011;4940;50.900;4.672;2023-02-15T08:11:47;66.03;;;50.00;;
9801;SDS011;4940;50.900;4.672;2023-02-15T08:14:15;69.90;;;52.27;;
9801;SDS011;4940;50.900;4.672;2023-02-15T08:16:44;74.30;;;50.00;;
9801;SDS011;4940;50.900;4.672;2023-02-15T08:19:15;68.17;;;53.80;;
9801;SDS011;4940;50.900;4.672;2023-02-15T08:21:44;70.60;;;52.00;;
9801;SDS011;4940;50.900;4.672;2023-02-15T08:24:13;66.83;;;52.10;;
9801;SDS011;4940;50.900;4.672;2023-02-15T08:26:42;63.93;;;51.70;;
9801;SDS011;4940;50.900;4.672;2023-02-15T08:29:12;68.70;;;52.83;;
9801;SDS011;4940;50.900;4.672;2023-02-15T08:31:39;73.93;;;52.37;;
9801;SDS011;4940;50.900;4.672;2023-02-15T08:34:07;75.47;;;53.70;;
9801;SDS011;4940;50.900;4.672;2023-02-15T08:36:37;76.57;;;55.80;;
9801;SDS011;4940;50.900;4.672;2023-02-15T08:39:05;77.83;;;57.47;;
9801;SDS011;4940;50.900;4.672;2023-02-15T08:41:33;85.30;;;57.03;;
9801;SDS011;4940;50.900;4.672;2023-02-15T08:44:02;74.28;;;56.60;;
9801;SDS011;4940;50.900;4.672;2023-02-15T08:46:31;74.20;;;56.72;;
9801;SDS011;4940;50.900;4.672;2023-02-15T08:49:00;75.53;;;55.53;;
9801;SDS011;4940;50.900;4.672;2023-02-15T08:51:29;86.13;;;57.08;;
9801;SDS011;4940;50.900;4.672;2023-02-15T08:54:00;70.30;;;53.05;;
9801;SDS011;4940;50.900;4.672;2023-02-15T08:56:29;60.42;;;49.90;;
9801;SDS011;4940;50.900;4.672;2023-02-15T08:58:59;52.47;;;43.47;;
9801;SDS011;4940;50.900;4.672;2023-02-15T09:01:27;44.35;;;37.28;;
9801;SDS011;4940;50.900;4.672;2023-02-15T09:03:55;43.38;;;31.50;;
9801;SDS011;4940;50.900;4.672;2023-02-15T09:06:23;37.53;;;24.33;;
9801;SDS011;4940;50.900;4.672;2023-02-15T09:08:51;34.90;;;19.83;;
9801;SDS011;4940;50.900;4.672;2023-02-15T09:11:20;33.20;;;17.70;;
9801;SDS011;4940;50.900;4.672;2023-02-15T09:13:49;32.90;;;16.15;;
9801;SDS011;4940;50.900;4.672;2023-02-15T09:16:19;29.40;;;16.10;;
9801;SDS011;4940;50.900;4.672;2023-02-15T09:18:47;30.10;;;15.77;;
9801;SDS011;4940;50.900;4.672;2023-02-15T09:21:15;28.42;;;15.63;;
9801;SDS011;4940;50.900;4.672;2023-02-15T09:23:44;28.73;;;15.32;;
9801;SDS011;4940;50.900;4.672;2023-02-15T09:26:13;31.05;;;15.32;;
9801;SDS011;4940;50.900;4.672;2023-02-15T09:28:42;31.17;;;15.30;;
9801;SDS011;4940;50.900;4.672;2023-02-15T09:31:11;29.88;;;14.05;;
9801;SDS011;4940;50.900;4.672;2023-02-15T09:33:40;29.52;;;15.50;;
9801;SDS011;4940;50.900;4.672;2023-02-15T09:36:14;28.48;;;14.90;;
9801;SDS011;4940;50.900;4.672;2023-02-15T09:38:42;27.80;;;15.30;;
9801;SDS011;4940;50.900;4.672;2023-02-15T09:41:22;26.73;;;14.65;;
9801;SDS011;4940;50.900;4.672;2023-02-15T09:44:13;29.45;;;14.63;;
9801;SDS011;4940;50.900;4.672;2023-02-15T09:46:51;30.23;;;15.45;;
9801;SDS011;4940;50.900;4.672;2023-02-15T09:49:38;29.08;;;15.73;;
9801;SDS011;4940;50.900;4.672;2023-02-15T09:52:16;28.20;;;14.82;;
9801;SDS011;4940;50.900;4.672;2023-02-15T09:54:58;27.80;;;14.63;;
9801;SDS011;4940;50.900;4.672;2023-02-15T09:57:35;29.23;;;15.02;;
9801;SDS011;4940;50.900;4.672;2023-02-15T10:00:12;25.67;;;14.35;;
9801;SDS011;4940;50.900;4.672;2023-02-15T10:02:52;28.42;;;15.82;;
9801;SDS011;4940;50.900;4.672;2023-02-15T10:05:33;28.35;;;14.27;;
9801;SDS011;4940;50.900;4.672;2023-02-15T10:08:21;28.52;;;14.98;;
9801;SDS011;4940;50.900;4.672;2023-02-15T10:11:09;27.67;;;14.70;;
9801;SDS011;4940;50.900;4.672;2023-02-15T10:14:02;32.35;;;14.43;;
9801;SDS011;4940;50.900;4.672;2023-02-15T10:16:41;24.23;;;14.10;;
9801;SDS011;4940;50.900;4.672;2023-02-15T10:19:15;27.60;;;14.75;;
9801;SDS011;4940;50.900;4.672;2023-02-15T10:21:55;29.95;;;14.90;;
9801;SDS011;4940;50.900;4.672;2023-02-15T10:24:33;25.88;;;13.60;;
9801;SDS011;4940;50.900;4.672;2023-02-15T10:27:11;32.85;;;14.60;;
9801;SDS011;4940;50.900;4.672;2023-02-15T10:29:41;29.83;;;14.38;;
9801;SDS011;4940;50.900;4.672;2023-02-15T10:32:20;26.42;;;14.13;;
9801;SDS011;4940;50.900;4.672;2023-02-15T10:34:51;25.35;;;13.55;;
9801;SDS011;4940;50.900;4.672;2023-02-15T10:37:36;28.20;;;14.27;;
9801;SDS011;4940;50.900;4.672;2023-02-15T10:40:22;24.30;;;12.75;;
9801;SDS011;4940;50.900;4.672;2023-02-15T10:43:04;25.55;;;13.88;;
9801;SDS011;4940;50.900;4.672;2023-02-15T10:45:46;26.98;;;14.40;;
9801;SDS011;4940;50.900;4.672;2023-02-15T10:48:22;27.70;;;13.60;;
9801;SDS011;4940;50.900;4.672;2023-02-15T10:51:01;26.48;;;14.45;;
9801;SDS011;4940;50.900;4.672;2023-02-15T10:53:44;29.90;;;14.18;;
9801;SDS011;4940;50.900;4.672;2023-02-15T10:56:23;24.55;;;13.80;;
9801;SDS011;4940;50.900;4.672;2023-02-15T10:59:06;34.30;;;14.85;;
9801;SDS011;4940;50.900;4.672;2023-02-15T11:01:58;28.75;;;14.98;;
9801;SDS011;4940;50.900;4.672;2023-02-15T11:04:35;26.45;;;14.13;;
9801;SDS011;4940;50.900;4.672;2023-02-15T11:07:08;24.80;;;13.98;;
9801;SDS011;4940;50.900;4.672;2023-02-15T11:09:42;33.10;;;14.45;;
9801;SDS011;4940;50.900;4.672;2023-02-15T11:12:14;32.70;;;13.23;;
9801;SDS011;4940;50.900;4.672;2023-02-15T11:14:44;27.75;;;14.63;;
9801;SDS011;4940;50.900;4.672;2023-02-15T11:17:17;26.13;;;14.18;;
9801;SDS011;4940;50.900;4.672;2023-02-15T11:19:54;28.23;;;14.05;;
9801;SDS011;4940;50.900;4.672;2023-02-15T11:22:26;26.13;;;13.95;;
9801;SDS011;4940;50.900;4.672;2023-02-15T11:24:53;26.45;;;13.77;;
9801;SDS011;4940;50.900;4.672;2023-02-15T11:27:23;29.25;;;14.32;;
9801;SDS011;4940;50.900;4.672;2023-02-15T11:29:57;26.75;;;13.55;;
9801;SDS011;4940;50.900;4.672;2023-02-15T11:32:27;28.17;;;13.55;;
9801;SDS011;4940;50.900;4.672;2023-02-15T11:35:00;27.73;;;13.88;;
9801;SDS011;4940;50.900;4.672;2023-02-15T11:37:32;27.02;;;13.88;;
9801;SDS011;4940;50.900;4.672;2023-02-15T11:40:06;24.65;;;12.75;;
9801;SDS011;4940;50.900;4.672;2023-02-15T11:42:45;31.63;;;14.10;;
9801;SDS011;4940;50.900;4.672;2023-02-15T11:45:22;32.63;;;13.88;;
9801;SDS011;4940;50.900;4.672;2023-02-15T11:47:54;29.05;;;14.05;;
9801;SDS011;4940;50.900;4.672;2023-02-15T11:50:24;25.23;;;13.45;;
9801;SDS011;4940;50.900;4.672;2023-02-15T11:52:54;26.08;;;13.10;;
9801;SDS011;4940;50.900;4.672;2023-02-15T11:55:25;30.55;;;13.77;;
9801;SDS011;4940;50.900;4.672;2023-02-15T11:57:55;25.42;;;13.23;;
9801;SDS011;4940;50.900;4.672;2023-02-15T12:00:31;25.88;;;14.00;;
9801;SDS011;4940;50.900;4.672;2023-02-15T12:03:02;29.52;;;14.60;;
9801;SDS011;4940;50.900;4.672;2023-02-15T12:05:37;25.17;;;14.07;;
9801;SDS011;4940;50.900;4.672;2023-02-15T12:08:18;29.98;;;13.75;;
9801;SDS011;4940;50.900;4.672;2023-02-15T12:10:53;27.73;;;13.68;;
9801;SDS011;4940;50.900;4.672;2023-02-15T12:13:25;28.45;;;14.02;;
9801;SDS011;4940;50.900;4.672;2023-02-15T12:15:53;26.02;;;13.45;;
9801;SDS011;4940;50.900;4.672;2023-02-15T12:21:11;25.10;;;13.98;;
9801;SDS011;4940;50.900;4.672;2023-02-15T12:23:42;30.77;;;14.48;;
9801;SDS011;4940;50.900;4.672;2023-02-15T12:26:23;27.05;;;13.77;;
9801;SDS011;4940;50.900;4.672;2023-02-15T12:28:51;27.02;;;13.88;;
9801;SDS011;4940;50.900;4.672;2023-02-15T12:31:24;29.10;;;13.57;;
9801;SDS011;4940;50.900;4.672;2023-02-15T12:33:53;30.63;;;15.15;;
9801;SDS011;4940;50.900;4.672;2023-02-15T12:36:25;29.05;;;13.77;;
9801;SDS011;4940;50.900;4.672;2023-02-15T12:39:04;27.35;;;15.27;;
9801;SDS011;4940;50.900;4.672;2023-02-15T12:41:43;28.33;;;14.95;;
9801;SDS011;4940;50.900;4.672;2023-02-15T12:44:15;26.73;;;13.93;;
9801;SDS011;4940;50.900;4.672;2023-02-15T12:46:54;30.15;;;13.75;;
9801;SDS011;4940;50.900;4.672;2023-02-15T12:49:24;30.35;;;14.80;;
9801;SDS011;4940;50.900;4.672;2023-02-15T12:51:53;29.65;;;13.32;;
9801;SDS011;4940;50.900;4.672;2023-02-15T12:54:30;28.08;;;14.70;;
9801;SDS011;4940;50.900;4.672;2023-02-15T12:57:02;29.27;;;14.55;;
9801;SDS011;4940;50.900;4.672;2023-02-15T12:59:51;26.42;;;14.45;;
9801;SDS011;4940;50.900;4.672;2023-02-15T13:02:27;25.73;;;14.02;;
9801;SDS011;4940;50.900;4.672;2023-02-15T13:04:55;27.65;;;14.55;;
9801;SDS011;4940;50.900;4.672;2023-02-15T13:07:31;26.58;;;13.38;;
9801;SDS011;4940;50.900;4.672;2023-02-15T13:09:59;31.27;;;14.60;;
9801;SDS011;4940;50.900;4.672;2023-02-15T13:12:27;30.23;;;14.82;;
9801;SDS011;4940;50.900;4.672;2023-02-15T13:14:57;28.55;;;13.48;;
9801;SDS011;4940;50.900;4.672;2023-02-15T13:17:28;29.45;;;13.20;;
9801;SDS011;4940;50.900;4.672;2023-02-15T13:20:00;24.60;;;14.57;;
9801;SDS011;4940;50.900;4.672;2023-02-15T13:22:35;28.73;;;13.85;;
9801;SDS011;4940;50.900;4.672;2023-02-15T13:25:09;27.48;;;13.82;;
9801;SDS011;4940;50.900;4.672;2023-02-15T13:27:41;31.13;;;14.45;;
9801;SDS011;4940;50.900;4.672;2023-02-15T13:32:54;27.60;;;14.85;;
9801;SDS011;4940;50.900;4.672;2023-02-15T13:35:26;28.85;;;13.80;;
9801;SDS011;4940;50.900;4.672;2023-02-15T13:38:11;26.48;;;13.80;;
9801;SDS011;4940;50.900;4.672;2023-02-15T13:40:51;25.08;;;14.00;;
9801;SDS011;4940;50.900;4.672;2023-02-15T13:43:25;25.80;;;13.85;;
9801;SDS011;4940;50.900;4.672;2023-02-15T13:46:07;26.83;;;14.20;;
9801;SDS011;4940;50.900;4.672;2023-02-15T13:48:44;31.92;;;15.05;;
9801;SDS011;4940;50.900;4.672;2023-02-15T13:51:22;28.23;;;13.60;;
9801;SDS011;4940;50.900;4.672;2023-02-15T13:54:03;29.00;;;14.85;;
9801;SDS011;4940;50.900;4.672;2023-02-15T13:56:53;32.47;;;14.98;;
9801;SDS011;4940;50.900;4.672;2023-02-15T13:59:30;32.30;;;15.65;;
9801;SDS011;4940;50.900;4.672;2023-02-15T14:02:23;30.33;;;13.88;;
9801;SDS011;4940;50.900;4.672;2023-02-15T14:05:05;30.02;;;14.85;;
9801;SDS011;4940;50.900;4.672;2023-02-15T14:07:49;30.25;;;15.10;;
9801;SDS011;4940;50.900;4.672;2023-02-15T14:10:31;24.00;;;13.82;;
9801;SDS011;4940;50.900;4.672;2023-02-15T14:13:14;26.58;;;14.60;;
9801;SDS011;4940;50.900;4.672;2023-02-15T14:16:03;26.63;;;14.43;;
9801;SDS011;4940;50.900;4.672;2023-02-15T14:18:36;26.25;;;14.60;;
9801;SDS011;4940;50.900;4.672;2023-02-15T14:21:09;33.03;;;15.80;;
9801;SDS011;4940;50.900;4.672;2023-02-15T14:23:52;32.25;;;15.75;;
9801;SDS011;4940;50.900;4.672;2023-02-15T14:26:32;25.92;;;14.73;;
9801;SDS011;4940;50.900;4.672;2023-02-15T14:29:12;29.25;;;14.57;;
9801;SDS011;4940;50.900;4.672;2023-02-15T14:31:47;28.73;;;15.80;;
9801;SDS011;4940;50.900;4.672;2023-02-15T14:34:18;29.95;;;16.02;;
9801;SDS011;4940;50.900;4.672;2023-02-15T14:36:48;28.70;;;15.13;;
9801;SDS011;4940;50.900;4.672;2023-02-15T14:39:21;28.23;;;14.75;;
9801;SDS011;4940;50.900;4.672;2023-02-15T14:42:14;30.75;;;14.73;;
9801;SDS011;4940;50.900;4.672;2023-02-15T14:44:48;28.35;;;14.90;;
9801;SDS011;4940;50.900;4.672;2023-02-15T14:47:21;28.83;;;15.27;;
9801;SDS011;4940;50.900;4.672;2023-02-15T14:49:53;30.20;;;15.60;;
9801;SDS011;4940;50.900;4.672;2023-02-15T14:52:20;31.20;;;15.27;;
9801;SDS011;4940;50.900;4.672;2023-02-15T14:54:57;30.38;;;15.80;;
9801;SDS011;4940;50.900;4.672;2023-02-15T14:57:36;29.83;;;15.20;;
9801;SDS011;4940;50.900;4.672;2023-02-15T15:02:56;30.95;;;15.80;;
9801;SDS011;4940;50.900;4.672;2023-02-15T15:05:24;29.60;;;15.57;;
9801;SDS011;4940;50.900;4.672;2023-02-15T15:07:58;29.52;;;15.57;;
9801;SDS011;4940;50.900;4.672;2023-02-15T15:10:35;28.95;;;15.63;;
9801;SDS011;4940;50.900;4.672;2023-02-15T15:16:33;34.08;;;15.80;;
9801;SDS011;4940;50.900;4.672;2023-02-15T15:22:29;28.73;;;15.20;;
9801;SDS011;4940;50.900;4.672;2023-02-15T15:24:58;30.90;;;15.75;;
9801;SDS011;4940;50.900;4.672;2023-02-15T15:42:31;29.33;;;14.30;;
9801;SDS011;4940;50.900;4.672;2023-02-15T15:45:22;30.98;;;15.82;;
9801;SDS011;4940;50.900;4.672;2023-02-15T15:50:59;30.05;;;14.80;;
9801;SDS011;4940;50.900;4.672;2023-02-15T15:53:29;29.92;;;16.20;;